createdAt,value
2019-04-10T00:00:52.994Z,56.94
2019-04-10T00:03:32.396Z,56.88
2019-04-10T00:05:56.335Z,56.94
2019-04-10T00:08:26.984Z,56.99
2019-04-10T00:10:58.534Z,57.09
2019-04-10T00:13:29.263Z,57.03
2019-04-10T00:15:59.198Z,57.12
2019-04-10T00:18:29.794Z,57.10
2019-04-10T00:21:00.871Z,57.13
2019-04-10T00:23:31.173Z,57.09
2019-04-10T00:26:01.506Z,57.08
2019-04-10T00:28:30.327Z,56.91
2019-04-10T00:30:59.725Z,56.72
2019-04-10T00:33:28.898Z,56.48
2019-04-10T00:35:57.509Z,56.24
2019-04-10T00:38:27.212Z,56.14
2019-04-10T00:40:57.513Z,56.17
2019-04-10T00:43:27.464Z,56.05
2019-04-10T00:45:57.888Z,55.96
2019-04-10T00:48:28.018Z,55.90
2019-04-10T00:50:57.802Z,55.69
2019-04-10T00:53:27.476Z,55.66
2019-04-10T00:55:57.164Z,55.81
2019-04-10T00:58:27.946Z,55.56
2019-04-10T01:00:59.187Z,55.56
2019-04-10T01:03:46.687Z,55.54
2019-04-10T01:06:16.434Z,55.44
2019-04-10T01:08:46.107Z,55.37
2019-04-10T01:11:17.019Z,55.33
2019-04-10T01:13:48.096Z,55.29
2019-04-10T01:16:17.959Z,55.20
2019-04-10T01:18:48.151Z,55.12
2019-04-10T01:21:18.126Z,55.19
2019-04-10T01:23:48.945Z,55.33
2019-04-10T01:26:19.193Z,55.34
2019-04-10T01:28:49.180Z,55.31
2019-04-10T01:31:21.402Z,55.47
2019-04-10T01:33:52.702Z,55.36
2019-04-10T01:36:22.807Z,55.28
2019-04-10T01:38:53.722Z,55.36
2019-04-10T01:41:23.814Z,55.38
2019-04-10T01:43:53.683Z,55.60
2019-04-10T01:46:24.378Z,55.58
2019-04-10T01:48:55.476Z,55.58
2019-04-10T01:51:25.626Z,55.79
2019-04-10T01:53:56.260Z,55.80
2019-04-10T01:56:31.631Z,55.96
2019-04-10T01:58:57.518Z,56.06
2019-04-10T02:01:32.557Z,56.07
2019-04-10T02:04:02.808Z,56.13
2019-04-10T02:06:33.667Z,56.18
2019-04-10T02:09:04.596Z,56.27
2019-04-10T02:11:34.525Z,56.32
2019-04-10T02:14:05.710Z,56.34
2019-04-10T02:16:35.501Z,56.22
2019-04-10T02:19:06.013Z,56.28
2019-04-10T02:21:36.028Z,56.23
2019-04-10T02:24:07.038Z,56.57
2019-04-10T02:26:38.068Z,56.48
2019-04-10T02:29:07.885Z,56.48
2019-04-10T02:31:39.262Z,56.53
2019-04-10T02:34:09.690Z,56.64
2019-04-10T02:36:40.343Z,56.72
2019-04-10T02:39:22.634Z,56.78
2019-04-10T02:41:42.503Z,56.74
2019-04-10T02:44:14.067Z,56.68
2019-04-10T02:46:45.115Z,56.77
2019-04-10T02:49:16.383Z,56.82
2019-04-10T02:59:15.534Z,57.18
2019-04-10T03:01:47.448Z,57.26
2019-04-10T03:04:18.349Z,57.26
2019-04-10T03:06:48.235Z,57.43
2019-04-10T03:09:32.211Z,57.32
2019-04-10T03:11:49.903Z,57.32
2019-04-10T03:14:21.122Z,57.53
2019-04-10T03:16:52.078Z,57.52
2019-04-10T03:19:21.836Z,57.42
2019-04-10T03:21:51.504Z,57.47
2019-04-10T03:24:21.337Z,57.49
2019-04-10T03:26:52.143Z,57.54
2019-04-10T03:29:22.313Z,57.58
2019-04-10T03:31:54.721Z,57.79
2019-04-10T03:34:28.991Z,57.83
2019-04-10T03:36:58.491Z,57.73
2019-04-10T03:39:28.480Z,57.69
2019-04-10T03:41:58.792Z,57.71
2019-04-10T03:44:28.562Z,57.94
2019-04-10T03:46:58.743Z,58.08
2019-04-10T03:49:29.661Z,58.07
2019-04-10T03:52:00.996Z,58.39
2019-04-10T03:54:32.475Z,58.18
2019-04-10T03:57:02.441Z,58.23
2019-04-10T03:59:32.576Z,58.16
2019-04-10T04:02:01.538Z,58.28
2019-04-10T04:04:31.353Z,58.36
2019-04-10T04:07:01.022Z,58.73
2019-04-10T04:09:31.376Z,59.01
2019-04-10T04:12:02.356Z,59.32
2019-04-10T04:14:32.627Z,59.45
2019-04-10T04:17:02.656Z,59.67
2019-04-10T04:19:32.536Z,59.93
2019-04-10T04:22:02.575Z,60.29
2019-04-10T04:24:32.265Z,60.83
2019-04-10T04:27:02.753Z,61.36
2019-04-10T04:29:32.559Z,61.89
2019-04-10T04:32:02.308Z,62.66
2019-04-10T04:34:32.321Z,62.81
2019-04-10T04:37:02.464Z,63.34
2019-04-10T04:39:33.030Z,63.94
2019-04-10T04:42:03.057Z,63.85
2019-04-10T04:44:33.337Z,64.14
2019-04-10T04:47:03.432Z,65.13
2019-04-10T04:49:33.664Z,64.48
2019-04-10T04:52:03.368Z,64.48
2019-04-10T04:54:32.928Z,64.87
2019-04-10T04:57:01.294Z,64.78
2019-04-10T04:59:29.730Z,64.97
2019-04-10T05:01:58.217Z,65.12
2019-04-10T05:04:27.027Z,65.04
2019-04-10T05:06:58.174Z,65.45
2019-04-10T05:09:34.351Z,65.60
2019-04-10T05:12:00.613Z,65.54
2019-04-10T05:14:31.467Z,65.59
2019-04-10T05:17:01.191Z,65.56
2019-04-10T05:19:33.966Z,65.65
2019-04-10T05:22:03.897Z,65.78
2019-04-10T05:24:34.266Z,65.96
2019-04-10T05:27:04.233Z,65.95
2019-04-10T05:29:35.106Z,66.05
2019-04-10T05:32:05.390Z,66.14
2019-04-10T05:34:36.138Z,66.08
2019-04-10T05:37:07.128Z,66.16
2019-04-10T05:39:43.383Z,66.14
2019-04-10T05:42:06.932Z,66.10
2019-04-10T05:44:36.066Z,66.10
2019-04-10T05:47:05.456Z,66.28
2019-04-10T05:49:37.072Z,66.25
2019-04-10T05:52:08.224Z,66.41
2019-04-10T05:54:39.466Z,66.43
2019-04-10T05:57:10.390Z,66.22
2019-04-10T05:59:40.468Z,66.34
2019-04-10T06:02:10.816Z,66.46
2019-04-10T06:04:41.221Z,66.43
2019-04-10T06:07:10.709Z,66.39
2019-04-10T06:09:52.743Z,66.43
2019-04-10T06:12:12.198Z,66.25
2019-04-10T06:14:42.359Z,66.30
2019-04-10T06:17:12.391Z,66.13
2019-04-10T06:19:42.675Z,66.19
2019-04-10T06:22:12.857Z,66.21
2019-04-10T06:24:42.685Z,66.11
2019-04-10T06:27:12.370Z,65.85
2019-04-10T06:32:11.526Z,65.56
2019-04-10T06:34:42.567Z,65.49
2019-04-10T06:37:13.534Z,65.40
2019-04-10T06:39:44.528Z,65.26
2019-04-10T06:42:14.589Z,65.12
2019-04-10T06:44:44.548Z,65.03
2019-04-10T06:47:14.435Z,64.83
2019-04-10T06:49:44.134Z,64.73
2019-04-10T06:52:14.477Z,64.64
2019-04-10T06:54:46.806Z,64.69
2019-04-10T06:57:16.899Z,64.45
2019-04-10T06:59:46.843Z,64.58
2019-04-10T07:02:24.561Z,64.58
2019-04-10T07:04:53.272Z,64.31
2019-04-10T07:07:23.776Z,64.14
2019-04-10T07:09:55.163Z,63.60
2019-04-10T07:12:30.974Z,63.10
2019-04-10T07:14:58.339Z,62.41
2019-04-10T07:17:29.435Z,61.46
2019-04-10T07:19:59.752Z,60.84
2019-04-10T07:22:29.763Z,60.07
2019-04-10T07:24:58.564Z,59.35
2019-04-10T07:27:27.939Z,58.78
2019-04-10T07:29:59.427Z,57.80
2019-04-10T07:32:28.215Z,56.67
2019-04-10T07:35:01.079Z,56.42
2019-04-10T07:37:29.680Z,56.15
2019-04-10T07:40:02.687Z,55.24
2019-04-10T07:42:39.752Z,54.20
2019-04-10T07:45:11.684Z,54.03
2019-04-10T07:47:42.022Z,53.40
2019-04-10T07:50:12.322Z,52.33
2019-04-10T07:52:41.965Z,51.94
2019-04-10T07:55:12.837Z,51.28
2019-04-10T07:57:47.131Z,50.72
2019-04-10T08:00:16.152Z,50.23
2019-04-10T08:02:46.927Z,50.79
2019-04-10T08:05:17.041Z,50.28
2019-04-10T08:07:47.265Z,49.86
2019-04-10T08:10:17.981Z,49.37
2019-04-10T08:12:52.311Z,49.07
2019-04-10T08:15:19.512Z,49.00
2019-04-10T08:17:51.272Z,48.47
2019-04-10T08:20:21.957Z,47.99
2019-04-10T08:22:53.292Z,47.59
2019-04-10T08:25:24.872Z,48.30
2019-04-10T08:27:54.595Z,47.82
2019-04-10T08:30:25.828Z,47.33
2019-04-10T08:33:00.843Z,46.76
2019-04-10T08:35:27.258Z,46.31
2019-04-10T08:37:57.290Z,46.52
2019-04-10T08:40:27.858Z,46.29
2019-04-10T08:42:57.851Z,46.12
2019-04-10T08:45:37.436Z,45.37
2019-04-10T08:47:59.635Z,45.16
2019-04-10T08:50:30.204Z,44.74
2019-04-10T08:53:00.250Z,43.98
2019-04-10T08:55:30.369Z,44.33
2019-04-10T08:57:58.921Z,44.34
2019-04-10T09:00:28.819Z,43.58
2019-04-10T09:02:58.172Z,43.71
2019-04-10T09:05:26.556Z,43.29
2019-04-10T09:07:54.856Z,43.11
2019-04-10T09:10:23.164Z,42.99
2019-04-10T09:12:54.349Z,43.00
2019-04-10T09:15:21.568Z,42.53
2019-04-10T09:17:49.867Z,41.99
2019-04-10T09:20:19.675Z,41.59
2019-04-10T09:23:13.353Z,40.83
2019-04-10T09:25:22.904Z,40.67
2019-04-10T09:27:53.909Z,40.57
2019-04-10T09:30:24.940Z,40.58
2019-04-10T09:32:54.981Z,40.82
2019-04-10T09:35:26.651Z,40.81
2019-04-10T09:37:56.684Z,40.70
2019-04-10T09:40:26.381Z,40.15
2019-04-10T09:42:56.424Z,40.21
2019-04-10T09:45:26.718Z,39.54
2019-04-10T09:47:56.503Z,39.43
2019-04-10T09:50:27.586Z,39.02
2019-04-10T09:52:57.342Z,38.22
2019-04-10T09:55:27.710Z,37.92
2019-04-10T09:57:58.053Z,38.34
2019-04-10T10:00:28.483Z,37.82
2019-04-10T10:02:59.326Z,37.82
2019-04-10T10:05:29.188Z,37.73
2019-04-10T10:08:00.199Z,38.10
2019-04-10T10:10:31.403Z,38.28
2019-04-10T10:13:03.289Z,37.60
2019-04-10T10:15:33.475Z,37.18
2019-04-10T10:18:03.454Z,36.61
2019-04-10T10:20:32.196Z,36.65
2019-04-10T10:23:01.302Z,36.95
2019-04-10T10:25:32.819Z,37.20
2019-04-10T10:28:02.959Z,36.81
2019-04-10T10:30:33.694Z,37.39
2019-04-10T10:33:03.774Z,37.32
2019-04-10T10:35:33.560Z,36.79
2019-04-10T10:38:03.975Z,37.01
2019-04-10T10:40:35.905Z,36.22
2019-04-10T10:43:05.940Z,36.26
2019-04-10T10:45:36.657Z,36.26
2019-04-10T10:48:08.690Z,36.18
2019-04-10T10:50:39.405Z,35.89
2019-04-10T10:53:10.245Z,36.10
2019-04-10T10:55:40.761Z,35.80
2019-04-10T10:58:11.368Z,35.73
2019-04-10T11:00:41.224Z,35.23
2019-04-10T11:03:10.923Z,34.77
2019-04-10T11:05:40.693Z,34.19
2019-04-10T11:08:11.137Z,34.72
2019-04-10T11:10:41.357Z,34.79
2019-04-10T11:13:12.751Z,34.50
2019-04-10T11:15:45.528Z,34.38
2019-04-10T11:18:14.224Z,34.88
2019-04-10T11:20:43.989Z,34.57
2019-04-10T11:23:13.853Z,34.26
2019-04-10T11:25:43.875Z,33.99
2019-04-10T11:28:12.583Z,33.31
2019-04-10T11:30:42.579Z,33.58
2019-04-10T11:33:12.439Z,34.05
2019-04-10T11:35:41.407Z,33.57
2019-04-10T11:38:10.949Z,32.44
2019-04-10T11:40:39.246Z,31.25
2019-04-10T11:43:07.814Z,31.84
2019-04-10T11:48:07.859Z,31.18
2019-04-10T11:50:38.435Z,31.44
2019-04-10T11:53:10.298Z,31.44
2019-04-10T11:55:48.876Z,32.05
2019-04-10T11:58:14.623Z,30.83
2019-04-10T12:00:50.342Z,31.46
2019-04-10T12:03:18.126Z,32.64
2019-04-10T12:05:49.149Z,32.39
2019-04-10T12:08:45.246Z,31.60
2019-04-10T12:11:10.709Z,31.52
2019-04-10T12:13:22.200Z,31.39
2019-04-10T12:15:52.611Z,30.99
2019-04-10T12:18:22.675Z,30.77
2019-04-10T12:20:53.651Z,31.06
2019-04-10T12:23:23.759Z,30.48
2019-04-10T12:25:54.177Z,31.13
2019-04-10T12:28:24.097Z,30.12
2019-04-10T12:30:53.997Z,30.86
2019-04-10T12:33:25.444Z,30.14
2019-04-10T12:35:56.151Z,29.66
2019-04-10T12:38:26.109Z,29.92
2019-04-10T12:40:57.243Z,30.59
2019-04-10T12:43:27.360Z,30.42
2019-04-10T12:45:57.391Z,30.67
2019-04-10T12:48:28.441Z,30.85
2019-04-10T12:50:58.376Z,31.51
2019-04-10T12:53:28.138Z,31.69
2019-04-10T12:55:58.125Z,31.38
2019-04-10T12:58:28.889Z,30.56
2019-04-10T13:00:58.899Z,31.33
2019-04-10T13:03:29.436Z,31.41
2019-04-10T13:05:59.792Z,31.47
2019-04-10T13:08:48.287Z,32.11
2019-04-10T13:11:02.459Z,31.43
2019-04-10T13:13:32.267Z,31.29
2019-04-10T13:16:02.018Z,31.56
2019-04-10T13:18:32.333Z,31.73
2019-04-10T13:21:02.426Z,31.84
2019-04-10T13:23:33.072Z,30.19
2019-04-10T13:26:05.879Z,30.84
2019-04-10T13:28:34.304Z,31.04
2019-04-10T13:31:05.400Z,31.13
2019-04-10T13:33:36.417Z,30.83
2019-04-10T13:36:07.198Z,30.96
2019-04-10T13:38:38.361Z,31.23
2019-04-10T13:41:08.563Z,30.88
2019-04-10T13:43:38.254Z,30.73
2019-04-10T13:46:08.766Z,30.47
2019-04-10T13:48:39.729Z,29.05
2019-04-10T13:51:10.869Z,29.84
2019-04-10T13:53:39.943Z,30.21
2019-04-10T13:56:08.702Z,30.34
2019-04-10T13:58:37.165Z,29.90
2019-04-10T14:01:07.224Z,30.63
2019-04-10T14:03:36.527Z,29.95
2019-04-10T14:06:05.351Z,29.47
2019-04-10T14:08:56.189Z,29.93
2019-04-10T14:11:04.712Z,29.61
2019-04-10T14:13:33.269Z,29.65
2019-04-10T14:16:04.338Z,29.75
2019-04-10T14:18:34.892Z,29.93
2019-04-10T14:21:11.393Z,29.68
2019-04-10T14:23:37.726Z,29.94
2019-04-10T14:26:22.455Z,29.57
2019-04-10T14:28:53.431Z,29.07
2019-04-10T14:31:32.356Z,29.82
2019-04-10T14:34:04.862Z,29.63
2019-04-10T14:36:35.922Z,29.03
2019-04-10T14:39:17.679Z,29.08
2019-04-10T14:41:46.396Z,29.88
2019-04-10T14:44:16.215Z,29.68
2019-04-10T14:46:46.446Z,29.84
2019-04-10T14:49:16.777Z,30.20
2019-04-10T14:51:48.477Z,29.42
2019-04-10T14:54:19.619Z,29.06
2019-04-10T14:56:50.419Z,29.58
2019-04-10T14:59:20.435Z,29.23
2019-04-10T15:01:51.205Z,29.77
2019-04-10T15:04:21.387Z,30.01
2019-04-10T15:06:51.415Z,30.01
2019-04-10T15:09:25.846Z,29.70
2019-04-10T15:11:55.498Z,29.34
2019-04-10T15:14:25.874Z,29.83
2019-04-10T15:17:02.868Z,30.06
2019-04-10T15:19:26.815Z,30.24
2019-04-10T15:21:55.779Z,30.38
2019-04-10T15:24:24.071Z,30.12
2019-04-10T15:26:52.870Z,30.30
2019-04-10T15:29:24.716Z,29.83
2019-04-10T15:31:55.893Z,30.50
2019-04-10T15:34:26.149Z,31.06
2019-04-10T15:36:56.433Z,31.59
2019-04-10T15:39:34.012Z,32.09
2019-04-10T15:41:59.512Z,31.87
2019-04-10T15:44:30.109Z,31.87
2019-04-10T15:47:10.841Z,31.96
2019-04-10T15:49:32.433Z,32.17
2019-04-10T15:52:03.690Z,32.33
2019-04-10T15:54:34.747Z,33.53
2019-04-10T15:57:16.424Z,32.22
2019-04-10T15:59:50.140Z,31.96
2019-04-10T16:02:29.887Z,31.32
2019-04-10T16:05:01.347Z,31.91
2019-04-10T16:07:32.352Z,32.24
2019-04-10T16:10:14.896Z,32.54
2019-04-10T16:12:46.015Z,32.94
2019-04-10T16:15:17.269Z,32.72
2019-04-10T16:18:01.715Z,32.96
2019-04-10T16:20:33.662Z,32.97
2019-04-10T16:23:18.391Z,33.16
2019-04-10T16:25:52.693Z,33.14
2019-04-10T16:28:23.520Z,33.46
2019-04-10T16:30:53.726Z,33.59
2019-04-10T16:33:25.402Z,33.57
2019-04-10T16:36:01.691Z,33.27
2019-04-10T16:38:31.541Z,33.02
2019-04-10T16:41:02.687Z,33.15
2019-04-10T16:43:32.809Z,33.41
2019-04-10T16:46:04.828Z,33.45
2019-04-10T16:48:35.843Z,34.00
2019-04-10T16:51:08.009Z,34.25
2019-04-10T16:53:38.290Z,34.48
2019-04-10T16:56:09.574Z,34.14
2019-04-10T16:58:41.169Z,33.72
2019-04-10T17:01:12.621Z,33.50
2019-04-10T17:03:44.208Z,33.99
2019-04-10T17:06:28.306Z,33.82
2019-04-10T17:08:58.561Z,33.88
2019-04-10T17:11:29.139Z,34.16
2019-04-10T17:14:00.593Z,34.40
2019-04-10T17:16:31.735Z,34.52
2019-04-10T17:19:01.880Z,34.41
2019-04-10T17:21:34.159Z,34.46
2019-04-10T17:24:03.708Z,34.84
2019-04-10T17:26:33.496Z,34.69
2019-04-10T17:29:03.016Z,34.81
2019-04-10T17:31:32.890Z,34.88
2019-04-10T17:34:04.344Z,34.85
2019-04-10T17:36:34.823Z,35.06
2019-04-10T17:39:09.124Z,35.39
2019-04-10T17:41:39.639Z,35.64
2019-04-10T17:44:09.671Z,35.81
2019-04-10T17:46:41.622Z,35.96
2019-04-10T17:49:12.118Z,36.13
2019-04-10T17:51:42.312Z,36.04
2019-04-10T17:54:12.200Z,36.13
2019-04-10T17:56:42.735Z,35.89
2019-04-10T17:59:14.102Z,36.29
2019-04-10T18:01:45.192Z,36.15
2019-04-10T18:04:16.046Z,36.16
2019-04-10T18:06:47.080Z,36.36
2019-04-10T18:09:18.160Z,36.30
2019-04-10T18:11:49.699Z,36.25
2019-04-10T18:14:19.511Z,36.59
2019-04-10T18:16:49.766Z,36.73
2019-04-10T18:19:21.203Z,36.73
2019-04-10T18:21:51.160Z,36.86
2019-04-10T18:24:22.096Z,36.91
2019-04-10T18:26:54.305Z,37.05
2019-04-10T18:29:25.370Z,37.29
2019-04-10T18:31:57.363Z,37.59
2019-04-10T18:34:27.002Z,37.68
2019-04-10T18:36:57.333Z,37.97
2019-04-10T18:39:27.347Z,38.02
2019-04-10T18:41:59.474Z,38.13
2019-04-10T18:44:29.284Z,38.38
2019-04-10T18:46:58.880Z,38.61
2019-04-10T18:49:29.510Z,38.86
2019-04-10T18:52:00.514Z,39.29
2019-04-10T18:54:31.813Z,39.20
2019-04-10T18:57:02.005Z,39.51
2019-04-10T19:00:03.345Z,39.76
2019-04-10T19:02:41.302Z,39.85
2019-04-10T19:05:17.830Z,40.08
2019-04-10T19:07:48.212Z,40.49
2019-04-10T19:10:18.224Z,40.94
2019-04-10T19:12:48.776Z,41.39
2019-04-10T19:15:18.654Z,41.96
2019-04-10T19:17:48.824Z,42.23
2019-04-10T19:20:18.861Z,42.56
2019-04-10T19:22:49.238Z,43.03
2019-04-10T19:25:20.975Z,43.28
2019-04-10T19:27:51.151Z,43.44
2019-04-10T19:30:33.364Z,43.57
2019-04-10T19:33:04.415Z,43.99
2019-04-10T19:35:35.099Z,44.41
2019-04-10T19:38:05.235Z,44.72
2019-04-10T19:40:36.953Z,44.97
2019-04-10T19:43:06.650Z,45.05
2019-04-10T19:45:36.603Z,45.17
2019-04-10T19:48:06.795Z,45.51
2019-04-10T19:50:37.294Z,45.45
2019-04-10T19:53:09.119Z,45.63
2019-04-10T19:55:40.122Z,46.04
2019-04-10T19:58:10.881Z,46.52
2019-04-10T20:00:41.369Z,46.70
2019-04-10T20:03:13.228Z,46.82
2019-04-10T20:05:44.411Z,46.94
2019-04-10T20:08:15.397Z,47.06
2019-04-10T20:10:46.252Z,47.22
2019-04-10T20:13:16.593Z,47.26
2019-04-10T20:15:46.816Z,47.45
2019-04-10T20:18:16.833Z,47.63
2019-04-10T20:20:47.762Z,48.19
2019-04-10T20:23:17.480Z,48.26
2019-04-10T20:25:48.511Z,48.76
2019-04-10T20:28:20.544Z,48.63
2019-04-10T20:30:54.540Z,48.91
2019-04-10T20:33:23.147Z,49.08
2019-04-10T20:35:53.078Z,49.28
2019-04-10T20:38:23.186Z,49.39
2019-04-10T20:40:54.028Z,49.47
2019-04-10T20:43:23.950Z,49.51
2019-04-10T20:45:53.904Z,49.77
2019-04-10T20:48:24.511Z,50.12
2019-04-10T20:50:57.236Z,50.00
2019-04-10T20:53:26.984Z,50.08
2019-04-10T20:55:57.810Z,50.21
2019-04-10T20:58:27.732Z,50.50
2019-04-10T21:00:58.697Z,50.57
2019-04-10T21:03:28.790Z,50.75
2019-04-10T21:05:58.445Z,50.78
2019-04-10T21:08:29.745Z,50.93
2019-04-10T21:10:59.695Z,50.98
2019-04-10T21:13:28.114Z,51.18
2019-04-10T21:15:56.729Z,51.37
2019-04-10T21:18:25.402Z,51.57
2019-04-10T21:20:53.772Z,51.80
2019-04-10T21:23:22.183Z,51.96
2019-04-10T21:25:51.819Z,51.90
2019-04-10T21:28:20.425Z,52.13
2019-04-10T21:31:20.765Z,52.25
2019-04-10T21:34:07.643Z,52.47
2019-04-10T21:36:39.247Z,52.50
2019-04-10T21:39:07.645Z,52.88
2019-04-10T21:41:37.507Z,52.97
2019-04-10T21:44:09.636Z,53.10
2019-04-10T21:46:38.920Z,53.29
2019-04-10T21:49:08.531Z,53.36
2019-04-10T21:51:38.337Z,53.51
2019-04-10T21:54:08.232Z,53.67
2019-04-10T21:56:37.908Z,53.80
2019-04-10T21:59:07.565Z,54.01
2019-04-10T22:01:38.110Z,54.11
2019-04-10T22:04:08.238Z,54.07
2019-04-10T22:06:59.983Z,54.16
2019-04-10T22:09:48.868Z,54.36
2019-04-10T22:12:31.594Z,54.35
2019-04-10T22:15:00.315Z,54.47
2019-04-10T22:17:32.105Z,54.57
2019-04-10T22:20:01.870Z,54.77
2019-04-10T22:22:32.961Z,54.82
2019-04-10T22:25:03.377Z,55.01
2019-04-10T22:27:33.805Z,55.10
2019-04-10T22:30:05.291Z,55.27
2019-04-10T22:32:35.389Z,55.36
2019-04-10T22:35:06.702Z,55.54
2019-04-10T22:37:37.709Z,55.74
2019-04-10T22:40:08.595Z,55.68
2019-04-10T22:42:43.038Z,55.66
2019-04-10T22:45:25.747Z,55.83
2019-04-10T22:47:56.332Z,55.88
2019-04-10T22:50:27.399Z,55.91
2019-04-10T22:52:57.196Z,56.11
2019-04-10T22:55:28.137Z,56.17
2019-04-10T22:57:57.853Z,56.26
2019-04-10T23:00:31.046Z,56.32
2019-04-10T23:03:03.103Z,56.42
2019-04-10T23:05:34.487Z,56.73
2019-04-10T23:08:04.612Z,56.74
2019-04-10T23:10:35.253Z,56.77
2019-04-10T23:13:07.214Z,56.86
2019-04-10T23:15:37.751Z,56.83
2019-04-10T23:18:08.194Z,57.01
2019-04-10T23:20:37.884Z,57.16
2019-04-10T23:23:08.532Z,57.31
2019-04-10T23:25:38.398Z,57.35
2019-04-10T23:28:09.407Z,57.51
2019-04-10T23:30:39.587Z,57.59
2019-04-10T23:33:10.052Z,57.63
2019-04-10T23:35:41.263Z,57.66
2019-04-10T23:38:11.180Z,57.77
2019-04-10T23:40:41.165Z,57.91
2019-04-10T23:43:14.099Z,58.01
2019-04-10T23:45:43.984Z,58.07
2019-04-10T23:48:14.922Z,58.10
2019-04-10T23:50:44.623Z,58.10
2019-04-10T23:53:14.283Z,58.16
2019-04-10T23:55:46.199Z,58.05
2019-04-10T23:58:16.135Z,58.04
